createdAt,value
2022-10-19T00:01:56.627Z,12.56
2022-10-19T00:04:30.058Z,12.49
2022-10-19T00:07:00.539Z,12.49
2022-10-19T00:09:29.746Z,8.05
2022-10-19T00:11:58.800Z,12.33
2022-10-19T00:14:27.850Z,12.18
2022-10-19T00:16:57.493Z,11.73
2022-10-19T00:19:27.339Z,12.18
2022-10-19T00:21:55.383Z,12.15
2022-10-19T00:24:24.830Z,12.15
2022-10-19T00:26:53.703Z,12.25
2022-10-19T00:29:23.051Z,12.25
2022-10-19T00:31:52.017Z,12.29
2022-10-19T00:34:20.827Z,12.14
2022-10-19T00:36:49.936Z,11.49
2022-10-19T00:39:19.191Z,11.66
2022-10-19T00:41:50.704Z,11.59
2022-10-19T00:44:20.374Z,11.59
2022-10-19T00:46:49.319Z,11.50
2022-10-19T00:49:21.992Z,11.49
2022-10-19T00:52:02.836Z,11.30
2022-10-19T00:54:31.129Z,11.27
2022-10-19T00:56:57.442Z,11.51
2022-10-19T00:59:24.621Z,11.81
2022-10-19T01:01:52.781Z,11.80
2022-10-19T01:04:23.695Z,11.77
2022-10-19T01:06:53.001Z,11.18
2022-10-19T01:09:23.016Z,11.34
2022-10-19T01:12:06.476Z,11.60
2022-10-19T01:14:47.655Z,11.93
2022-10-19T01:17:31.994Z,12.06
2022-10-19T01:20:17.600Z,11.96
2022-10-19T01:23:09.589Z,11.74
2022-10-19T01:25:47.506Z,11.67
2022-10-19T01:28:39.145Z,11.74
2022-10-19T01:31:13.217Z,11.64
2022-10-19T01:34:06.102Z,11.71
2022-10-19T01:37:04.650Z,11.79
2022-10-19T01:39:46.389Z,11.54
2022-10-19T01:42:21.717Z,10.91
2022-10-19T01:45:05.484Z,11.39
2022-10-19T01:47:36.726Z,11.61
2022-10-19T01:50:15.642Z,11.74
2022-10-19T01:52:45.942Z,11.65
2022-10-19T01:55:15.829Z,11.72
2022-10-19T01:57:45.836Z,11.67
2022-10-19T02:00:16.694Z,11.03
2022-10-19T02:02:50.289Z,11.83
2022-10-19T02:05:21.768Z,11.17
2022-10-19T02:07:58.217Z,11.09
2022-10-19T02:10:30.787Z,11.66
2022-10-19T02:13:02.137Z,11.63
2022-10-19T02:15:34.842Z,11.73
2022-10-19T02:18:06.411Z,11.68
2022-10-19T02:20:36.736Z,11.82
2022-10-19T02:23:11.319Z,11.75
2022-10-19T02:25:40.793Z,11.75
2022-10-19T02:28:10.405Z,11.76
2022-10-19T02:30:41.667Z,11.88
2022-10-19T02:33:11.937Z,11.89
2022-10-19T02:35:42.224Z,11.69
2022-10-19T02:38:16.215Z,11.40
2022-10-19T02:40:57.137Z,11.74
2022-10-19T02:43:27.744Z,11.70
2022-10-19T02:46:03.776Z,11.58
2022-10-19T02:48:34.458Z,10.79
2022-10-19T02:51:04.650Z,11.70
2022-10-19T02:53:34.271Z,11.76
2022-10-19T02:56:08.962Z,11.72
2022-10-19T02:58:38.322Z,11.79
2022-10-19T03:01:08.592Z,8.02
2022-10-19T03:03:38.255Z,11.74
2022-10-19T03:06:08.104Z,11.82
2022-10-19T03:08:37.714Z,11.47
2022-10-19T03:11:07.768Z,11.52
2022-10-19T03:13:40.716Z,11.34
2022-10-19T03:16:10.376Z,11.47
2022-10-19T03:18:37.794Z,9.74
2022-10-19T03:21:09.172Z,11.74
2022-10-19T03:23:41.419Z,10.21
2022-10-19T03:26:13.566Z,11.42
2022-10-19T03:28:39.792Z,11.52
2022-10-19T03:31:09.363Z,11.41
2022-10-19T03:33:38.307Z,11.57
2022-10-19T03:36:25.313Z,11.40
2022-10-19T03:38:52.629Z,10.47
2022-10-19T03:41:24.216Z,9.95
2022-10-19T03:43:50.456Z,11.39
2022-10-19T03:46:17.107Z,11.27
2022-10-19T03:48:43.345Z,11.33
2022-10-19T03:51:17.342Z,11.33
2022-10-19T03:53:43.835Z,11.26
2022-10-19T03:56:15.708Z,10.55
2022-10-19T03:58:43.394Z,10.45
2022-10-19T04:01:16.664Z,11.04
2022-10-19T04:03:43.181Z,10.99
2022-10-19T04:06:12.375Z,10.69
2022-10-19T04:08:38.755Z,11.02
2022-10-19T04:11:10.946Z,10.94
2022-10-19T04:13:36.948Z,10.69
2022-10-19T04:16:03.134Z,9.74
2022-10-19T04:18:31.035Z,10.93
2022-10-19T04:21:02.635Z,11.04
2022-10-19T04:23:32.593Z,10.94
2022-10-19T04:26:05.763Z,9.71
2022-10-19T04:28:39.139Z,10.44
2022-10-19T04:31:06.040Z,10.20
2022-10-19T04:33:33.181Z,10.92
2022-10-19T04:36:05.031Z,10.79
2022-10-19T04:38:35.717Z,11.01
2022-10-19T04:41:09.610Z,9.63
2022-10-19T04:43:36.054Z,10.80
2022-10-19T04:46:04.074Z,9.67
2022-10-19T04:48:30.401Z,10.90
2022-10-19T04:50:58.862Z,10.99
2022-10-19T04:53:28.283Z,10.82
2022-10-19T04:55:57.680Z,10.82
2022-10-19T04:58:26.757Z,10.36
2022-10-19T05:00:56.469Z,11.06
2022-10-19T05:03:25.617Z,11.28
2022-10-19T05:05:58.561Z,11.29
2022-10-19T05:08:24.608Z,10.96
2022-10-19T05:10:54.010Z,11.35
2022-10-19T05:13:23.311Z,11.42
2022-10-19T05:15:58.188Z,10.75
2022-10-19T05:18:25.868Z,11.12
2022-10-19T05:21:09.535Z,11.09
2022-10-19T05:23:42.723Z,11.23
2022-10-19T05:26:17.143Z,11.22
2022-10-19T05:28:47.885Z,11.26
2022-10-19T05:31:16.708Z,10.59
2022-10-19T05:33:46.592Z,11.06
2022-10-19T05:36:25.470Z,11.15
2022-10-19T05:38:52.814Z,11.24
2022-10-19T05:41:23.163Z,11.33
2022-10-19T05:43:55.697Z,11.08
2022-10-19T05:46:22.427Z,11.20
2022-10-19T05:48:48.706Z,11.05
2022-10-19T05:51:20.334Z,11.19
2022-10-19T05:53:50.440Z,11.18
2022-10-19T05:56:18.379Z,11.18
2022-10-19T05:58:44.772Z,11.04
2022-10-19T06:01:15.284Z,10.95
2022-10-19T06:03:43.717Z,10.65
2022-10-19T06:06:09.924Z,10.99
2022-10-19T06:08:37.062Z,11.08
2022-10-19T06:11:08.757Z,11.08
2022-10-19T06:13:35.435Z,11.02
2022-10-19T06:16:01.464Z,10.98
2022-10-19T06:18:27.583Z,11.12
2022-10-19T06:21:10.475Z,11.09
2022-10-19T06:23:36.843Z,10.97
2022-10-19T06:26:05.560Z,11.20
2022-10-19T06:28:39.429Z,10.66
2022-10-19T06:31:09.654Z,11.05
2022-10-19T06:33:36.043Z,10.45
2022-10-19T06:36:22.150Z,11.23
2022-10-19T06:38:52.499Z,11.20
2022-10-19T06:41:22.169Z,11.27
2022-10-19T06:43:49.920Z,11.02
2022-10-19T06:46:22.508Z,10.56
2022-10-19T06:48:56.830Z,10.86
2022-10-19T06:51:25.279Z,11.39
2022-10-19T06:53:57.051Z,6.95
2022-10-19T06:56:27.297Z,11.02
2022-10-19T06:58:57.297Z,11.12
2022-10-19T07:01:23.733Z,11.28
2022-10-19T07:03:53.678Z,11.45
2022-10-19T07:06:23.340Z,11.06
2022-10-19T07:08:52.779Z,11.27
2022-10-19T07:11:20.143Z,11.25
2022-10-19T07:13:51.829Z,10.93
2022-10-19T07:16:22.050Z,10.69
2022-10-19T07:18:52.501Z,11.28
2022-10-19T07:21:24.322Z,11.39
2022-10-19T07:23:54.097Z,11.29
2022-10-19T07:26:27.029Z,11.16
2022-10-19T07:28:55.662Z,11.28
2022-10-19T07:31:27.174Z,11.23
2022-10-19T07:34:02.792Z,11.30
2022-10-19T07:36:34.587Z,11.15
2022-10-19T07:39:05.855Z,11.08
2022-10-19T07:41:35.358Z,11.13
2022-10-19T07:44:05.536Z,11.32
2022-10-19T07:46:39.046Z,11.37
2022-10-19T07:49:13.339Z,11.19
2022-10-19T07:51:43.021Z,11.48
2022-10-19T07:54:17.931Z,11.42
2022-10-19T07:56:47.434Z,11.01
2022-10-19T07:59:17.030Z,11.65
2022-10-19T08:01:48.081Z,11.59
2022-10-19T08:07:07.513Z,11.78
2022-10-19T08:09:58.039Z,11.82
2022-10-19T08:12:28.360Z,11.81
2022-10-19T08:14:58.508Z,11.87
2022-10-19T08:17:29.014Z,12.05
2022-10-19T08:19:58.632Z,12.06
2022-10-19T08:22:28.800Z,11.64
2022-10-19T08:24:58.751Z,12.26
2022-10-19T08:27:29.763Z,12.20
2022-10-19T08:30:00.657Z,12.20
2022-10-19T08:32:30.079Z,12.27
2022-10-19T08:35:08.485Z,12.21
2022-10-19T08:37:44.716Z,11.37
2022-10-19T08:40:22.359Z,11.70
2022-10-19T08:42:59.435Z,12.24
2022-10-19T08:45:31.630Z,12.35
2022-10-19T08:47:59.777Z,12.05
2022-10-19T08:50:39.310Z,12.53
2022-10-19T08:53:16.411Z,12.15
2022-10-19T08:55:49.120Z,11.93
2022-10-19T08:58:27.755Z,12.72
2022-10-19T09:01:03.758Z,12.24
2022-10-19T09:04:01.015Z,12.69
2022-10-19T09:06:36.021Z,13.05
2022-10-19T09:09:11.917Z,12.51
2022-10-19T09:11:46.966Z,12.88
2022-10-19T09:14:29.779Z,13.38
2022-10-19T09:17:03.102Z,12.77
2022-10-19T09:19:33.032Z,13.35
2022-10-19T09:22:21.933Z,13.73
2022-10-19T09:24:57.711Z,14.53
2022-10-19T09:27:26.156Z,14.64
2022-10-19T09:29:57.214Z,14.21
2022-10-19T09:32:32.922Z,14.78
2022-10-19T09:35:04.735Z,14.82
2022-10-19T09:37:32.172Z,15.09
2022-10-19T09:40:03.344Z,13.66
2022-10-19T09:42:32.606Z,14.13
2022-10-19T09:45:01.470Z,14.36
2022-10-19T09:47:39.047Z,14.63
2022-10-19T09:50:26.645Z,12.72
2022-10-19T09:52:55.015Z,14.14
2022-10-19T09:55:34.345Z,13.41
2022-10-19T09:58:04.847Z,13.79
2022-10-19T10:00:37.101Z,14.04
2022-10-19T10:03:07.031Z,14.04
2022-10-19T10:05:39.145Z,13.47
2022-10-19T10:08:14.576Z,13.28
2022-10-19T10:10:59.012Z,13.87
2022-10-19T10:13:29.165Z,14.19
2022-10-19T10:16:01.184Z,13.59
2022-10-19T10:18:36.114Z,14.00
2022-10-19T10:21:25.895Z,9.62
2022-10-19T10:24:11.422Z,12.87
2022-10-19T10:26:45.715Z,13.75
2022-10-19T10:29:18.962Z,13.48
2022-10-19T10:31:53.226Z,12.85
2022-10-19T10:34:50.250Z,13.89
2022-10-19T10:37:30.231Z,13.52
2022-10-19T10:40:00.312Z,13.45
2022-10-19T10:42:42.862Z,13.70
2022-10-19T10:45:25.662Z,11.89
2022-10-19T10:47:56.104Z,12.31
2022-10-19T10:50:35.882Z,13.72
2022-10-19T10:53:07.306Z,13.14
2022-10-19T10:55:36.888Z,13.06
2022-10-19T10:58:11.343Z,13.81
2022-10-19T11:00:41.610Z,13.82
2022-10-19T11:03:42.324Z,14.87
2022-10-19T11:06:12.671Z,14.67
2022-10-19T11:08:56.155Z,15.26
2022-10-19T11:11:40.400Z,14.68
2022-10-19T11:14:49.215Z,14.54
2022-10-19T11:17:25.327Z,14.49
2022-10-19T11:19:58.781Z,11.98
2022-10-19T11:22:51.146Z,13.21
2022-10-19T11:25:35.452Z,14.43
2022-10-19T11:28:43.284Z,13.91
2022-10-19T11:31:18.467Z,14.40
2022-10-19T11:34:03.460Z,14.28
2022-10-19T11:36:58.149Z,14.41
2022-10-19T11:39:33.927Z,15.02
2022-10-19T11:42:06.774Z,15.38
2022-10-19T11:44:39.276Z,14.94
2022-10-19T11:47:23.661Z,14.79
2022-10-19T11:50:02.851Z,15.63
2022-10-19T11:52:45.673Z,15.32
2022-10-19T11:55:22.938Z,15.95
2022-10-19T11:58:20.708Z,16.01
2022-10-19T12:01:06.174Z,14.86
2022-10-19T12:03:58.895Z,16.03
2022-10-19T12:06:46.826Z,16.56
2022-10-19T12:09:31.279Z,16.66
2022-10-19T12:12:14.198Z,15.45
2022-10-19T12:14:47.748Z,15.43
2022-10-19T12:17:28.079Z,14.99
2022-10-19T12:20:01.846Z,15.13
2022-10-19T12:22:33.572Z,14.90
2022-10-19T12:25:04.242Z,16.53
2022-10-19T12:27:37.181Z,16.34
2022-10-19T12:30:14.320Z,16.89
2022-10-19T12:32:54.158Z,17.36
2022-10-19T12:35:24.432Z,17.53
2022-10-19T12:38:29.245Z,15.59
2022-10-19T12:41:12.421Z,16.27
2022-10-19T12:44:09.056Z,17.44
2022-10-19T12:46:51.775Z,17.89
2022-10-19T12:49:29.795Z,17.41
2022-10-19T12:52:00.746Z,16.66
2022-10-19T12:54:36.527Z,17.17
2022-10-19T12:57:26.968Z,18.36
2022-10-19T12:59:59.053Z,17.61
2022-10-19T13:05:03.968Z,15.95
2022-10-19T13:07:35.436Z,18.19
2022-10-19T13:10:07.797Z,17.01
2022-10-19T13:12:44.230Z,18.00
2022-10-19T13:15:35.651Z,17.43
2022-10-19T13:18:15.059Z,17.81
2022-10-19T13:20:52.996Z,18.31
2022-10-19T13:23:19.152Z,17.88
2022-10-19T13:25:45.225Z,15.61
2022-10-19T13:28:14.831Z,17.03
2022-10-19T13:30:43.251Z,16.42
2022-10-19T13:33:24.949Z,17.19
2022-10-19T13:36:00.065Z,17.35
2022-10-19T13:38:29.993Z,17.12
2022-10-19T13:41:05.880Z,15.96
2022-10-19T13:44:06.032Z,16.55
2022-10-19T13:46:53.832Z,16.20
2022-10-19T13:49:38.344Z,16.79
2022-10-19T13:52:27.024Z,15.38
2022-10-19T13:55:31.554Z,15.91
2022-10-19T13:58:29.140Z,15.63
2022-10-19T14:01:10.661Z,15.90
2022-10-19T14:03:45.740Z,16.50
2022-10-19T14:06:27.495Z,16.53
2022-10-19T14:09:15.450Z,16.36
2022-10-19T14:11:48.163Z,15.25
2022-10-19T14:14:19.242Z,14.69
2022-10-19T14:17:01.194Z,15.60
2022-10-19T14:19:42.447Z,15.83
2022-10-19T14:22:18.700Z,14.96
2022-10-19T14:24:50.900Z,15.15
2022-10-19T14:27:24.068Z,15.30
2022-10-19T14:29:54.319Z,14.91
2022-10-19T14:32:32.594Z,15.00
2022-10-19T14:35:22.833Z,15.68
2022-10-19T14:37:49.276Z,15.73
2022-10-19T14:40:28.709Z,15.58
2022-10-19T14:42:57.560Z,15.65
2022-10-19T14:45:29.329Z,15.69
2022-10-19T14:48:06.627Z,15.33
2022-10-19T14:50:52.216Z,14.14
2022-10-19T14:53:50.202Z,15.49
2022-10-19T14:56:23.616Z,15.12
2022-10-19T14:59:00.223Z,14.66
2022-10-19T15:01:30.580Z,14.97
2022-10-19T15:04:00.997Z,14.72
2022-10-19T15:06:41.690Z,14.81
2022-10-19T15:09:37.332Z,13.35
2022-10-19T15:12:21.728Z,14.31
2022-10-19T15:14:51.365Z,14.59
2022-10-19T15:17:23.184Z,14.75
2022-10-19T15:19:55.607Z,14.48
2022-10-19T15:22:42.941Z,14.28
2022-10-19T15:25:09.427Z,14.52
2022-10-19T15:27:44.683Z,13.85
2022-10-19T15:30:16.615Z,13.85
2022-10-19T15:32:50.742Z,14.19
2022-10-19T15:35:30.081Z,14.26
2022-10-19T15:38:09.238Z,13.94
2022-10-19T15:40:38.307Z,13.88
2022-10-19T15:43:30.052Z,13.73
2022-10-19T15:46:00.537Z,13.76
2022-10-19T15:48:39.575Z,13.75
2022-10-19T15:51:22.579Z,14.09
2022-10-19T15:53:59.331Z,13.73
2022-10-19T15:56:31.652Z,13.30
2022-10-19T15:59:05.013Z,13.51
2022-10-19T16:01:41.681Z,13.91
2022-10-19T16:04:11.935Z,13.65
2022-10-19T16:06:44.482Z,13.08
2022-10-19T16:09:21.005Z,13.84
2022-10-19T16:11:55.935Z,13.77
2022-10-19T16:14:27.770Z,13.33
2022-10-19T16:17:05.146Z,12.25
2022-10-19T16:19:34.099Z,13.22
2022-10-19T16:22:03.660Z,13.32
2022-10-19T16:24:32.945Z,13.56
2022-10-19T16:27:02.298Z,13.67
2022-10-19T16:29:31.250Z,13.63
2022-10-19T16:32:01.685Z,13.31
2022-10-19T16:34:30.862Z,13.42
2022-10-19T16:37:04.100Z,13.28
2022-10-19T16:39:33.972Z,13.28
2022-10-19T16:42:00.479Z,13.14
2022-10-19T16:44:33.588Z,13.20
2022-10-19T16:47:03.311Z,13.26
2022-10-19T16:49:32.342Z,12.96
2022-10-19T16:52:01.447Z,12.80
2022-10-19T16:54:32.300Z,12.13
2022-10-19T16:57:05.743Z,13.04
2022-10-19T16:59:35.030Z,12.72
2022-10-19T17:02:01.063Z,12.86
2022-10-19T17:04:30.668Z,12.83
2022-10-19T17:07:02.279Z,12.91
2022-10-19T17:09:49.825Z,12.10
2022-10-19T17:12:20.669Z,11.20
2022-10-19T17:14:46.770Z,12.98
2022-10-19T17:17:12.857Z,13.06
2022-10-19T17:19:38.915Z,12.71
2022-10-19T17:22:05.046Z,13.06
2022-10-19T17:24:32.384Z,12.61
2022-10-19T17:27:11.875Z,12.87
2022-10-19T17:29:43.930Z,13.13
2022-10-19T17:32:09.986Z,13.29
2022-10-19T17:34:36.050Z,13.19
2022-10-19T17:37:02.145Z,12.95
2022-10-19T17:39:36.840Z,13.16
2022-10-19T17:42:06.321Z,13.06
2022-10-19T17:44:35.576Z,13.07
2022-10-19T17:47:04.974Z,13.04
2022-10-19T17:49:34.188Z,12.98
2022-10-19T17:52:04.221Z,11.25
2022-10-19T17:54:43.387Z,12.96
2022-10-19T17:57:23.194Z,13.02
2022-10-19T17:59:52.915Z,12.89
2022-10-19T18:02:19.688Z,12.73
2022-10-19T18:04:54.813Z,12.73
2022-10-19T18:07:24.944Z,12.68
2022-10-19T18:09:51.690Z,11.37
2022-10-19T18:12:17.967Z,12.19
2022-10-19T18:14:49.361Z,12.00
2022-10-19T18:17:15.425Z,11.25
2022-10-19T18:19:41.621Z,12.11
2022-10-19T18:22:07.650Z,12.09
2022-10-19T18:24:41.129Z,12.35
2022-10-19T18:27:07.224Z,12.08
2022-10-19T18:29:33.406Z,11.45
2022-10-19T18:32:00.745Z,11.47
2022-10-19T18:34:31.705Z,11.41
2022-10-19T18:37:02.054Z,11.94
2022-10-19T18:39:30.965Z,11.82
2022-10-19T18:41:59.996Z,7.63
2022-10-19T18:44:33.501Z,11.43
2022-10-19T18:46:59.828Z,11.66
2022-10-19T18:49:29.202Z,10.46
2022-10-19T18:51:59.261Z,7.32
2022-10-19T18:54:28.943Z,11.15
2022-10-19T18:56:59.347Z,10.44
2022-10-19T19:02:07.851Z,11.06
2022-10-19T19:04:39.657Z,10.73
2022-10-19T19:07:05.788Z,11.11
2022-10-19T19:09:32.615Z,10.51
2022-10-19T19:12:03.782Z,10.82
2022-10-19T19:14:33.190Z,10.23
2022-10-19T19:17:04.100Z,10.38
2022-10-19T19:19:36.410Z,9.86
2022-10-19T19:22:08.616Z,10.33
2022-10-19T19:24:36.078Z,10.63
2022-10-19T19:27:05.369Z,11.16
2022-10-19T19:29:36.541Z,10.19
2022-10-19T19:32:05.981Z,11.41
2022-10-19T19:34:35.220Z,11.47
2022-10-19T19:37:06.166Z,10.87
2022-10-19T19:39:35.058Z,9.29
2022-10-19T19:42:02.738Z,10.29
2022-10-19T19:44:31.831Z,10.82
2022-10-19T19:47:01.679Z,10.60
2022-10-19T19:49:31.057Z,10.05
2022-10-19T19:52:00.873Z,10.11
2022-10-19T19:54:29.418Z,9.11
2022-10-19T19:57:02.594Z,9.79
2022-10-19T19:59:31.806Z,10.18
2022-10-19T20:02:01.512Z,10.02
2022-10-19T20:04:30.678Z,10.78
2022-10-19T20:07:01.574Z,10.79
2022-10-19T20:09:31.243Z,10.37
2022-10-19T20:12:00.397Z,10.67
2022-10-19T20:14:29.662Z,10.98
2022-10-19T20:16:59.528Z,11.00
2022-10-19T20:19:28.445Z,10.70
2022-10-19T20:21:59.543Z,10.72
2022-10-19T20:24:35.560Z,10.29
2022-10-19T20:27:03.721Z,9.45
2022-10-19T20:29:30.808Z,9.20
2022-10-19T20:32:00.848Z,9.78
2022-10-19T20:34:30.473Z,9.56
2022-10-19T20:36:59.627Z,9.24
2022-10-19T20:39:28.780Z,9.18
2022-10-19T20:41:59.132Z,10.27
2022-10-19T20:44:28.495Z,9.25
2022-10-19T20:46:57.760Z,10.46
2022-10-19T20:49:27.030Z,10.59
2022-10-19T20:51:58.487Z,9.93
2022-10-19T20:54:28.041Z,10.42
2022-10-19T20:56:57.079Z,10.67
2022-10-19T20:59:27.018Z,10.71
2022-10-19T21:02:01.813Z,10.73
2022-10-19T21:04:31.326Z,10.63
2022-10-19T21:07:00.376Z,10.51
2022-10-19T21:09:29.549Z,10.48
2022-10-19T21:12:00.831Z,10.00
2022-10-19T21:14:29.572Z,10.50
2022-10-19T21:16:59.573Z,10.44
2022-10-19T21:19:31.656Z,10.44
2022-10-19T21:22:02.453Z,10.54
2022-10-19T21:24:33.895Z,10.40
2022-10-19T21:27:04.867Z,9.78
2022-10-19T21:29:31.732Z,10.18
2022-10-19T21:32:01.578Z,9.80
2022-10-19T21:34:31.500Z,10.07
2022-10-19T21:37:00.929Z,9.48
2022-10-19T21:39:30.118Z,9.28
2022-10-19T21:42:01.884Z,8.98
2022-10-19T21:44:30.000Z,9.62
2022-10-19T21:47:03.451Z,9.88
2022-10-19T21:49:32.519Z,9.28
2022-10-19T21:52:02.774Z,9.85
2022-10-19T21:54:32.119Z,9.44
2022-10-19T21:57:02.338Z,9.12
2022-10-19T21:59:31.456Z,9.32
2022-10-19T22:02:01.664Z,9.37
2022-10-19T22:04:31.079Z,9.15
2022-10-19T22:07:01.564Z,8.52
2022-10-19T22:09:30.736Z,9.17
2022-10-19T22:12:00.824Z,8.13
2022-10-19T22:14:36.119Z,8.84
2022-10-19T22:17:05.170Z,9.49
2022-10-19T22:19:34.376Z,9.38
2022-10-19T22:22:03.466Z,9.20
2022-10-19T22:24:34.046Z,8.81
2022-10-19T22:27:02.020Z,9.22
2022-10-19T22:29:31.235Z,8.33
2022-10-19T22:32:00.571Z,8.82
2022-10-19T22:34:31.437Z,8.23
2022-10-19T22:36:59.601Z,7.52
2022-10-19T22:39:29.373Z,9.54
2022-10-19T22:42:02.911Z,9.25
2022-10-19T22:44:31.640Z,9.55
2022-10-19T22:47:00.776Z,7.92
2022-10-19T22:49:29.921Z,9.63
2022-10-19T22:52:00.328Z,9.63
2022-10-19T22:54:29.516Z,9.29
2022-10-19T22:57:01.201Z,9.66
2022-10-19T22:59:30.523Z,9.40
2022-10-19T23:02:00.514Z,9.63
2022-10-19T23:04:29.933Z,9.70
2022-10-19T23:07:00.267Z,9.67
2022-10-19T23:09:33.319Z,9.71
2022-10-19T23:12:02.252Z,9.70
2022-10-19T23:14:31.907Z,9.74
2022-10-19T23:17:01.576Z,9.67
2022-10-19T23:19:30.943Z,9.65
2022-10-19T23:22:01.534Z,9.50
2022-10-19T23:24:30.945Z,9.54
2022-10-19T23:27:03.966Z,9.54
2022-10-19T23:29:33.988Z,9.44
2022-10-19T23:32:04.084Z,9.24
2022-10-19T23:34:32.822Z,9.06
2022-10-19T23:37:01.741Z,9.44
2022-10-19T23:39:30.814Z,9.54
2022-10-19T23:42:01.385Z,9.64
2022-10-19T23:44:31.329Z,9.29
2022-10-19T23:47:01.121Z,9.59
2022-10-19T23:49:30.432Z,9.76
2022-10-19T23:52:00.583Z,9.79
2022-10-19T23:54:35.740Z,9.70
2022-10-19T23:57:05.172Z,9.62
2022-10-19T23:59:34.354Z,9.70
